createdAt,value
2022-12-18T00:01:06.785Z,102890.13
2022-12-18T00:03:34.803Z,102887.56
2022-12-18T00:06:02.764Z,102898.63
2022-12-18T00:08:30.293Z,102907.94
2022-12-18T00:11:07.093Z,102907.84
2022-12-18T00:13:36.596Z,102912.69
2022-12-18T00:16:04.969Z,102909.06
2022-12-18T00:18:32.542Z,102912.34
2022-12-18T00:21:02.071Z,102913.94
2022-12-18T00:23:30.028Z,102910.44
2022-12-18T00:26:00.994Z,102915.50
2022-12-18T00:28:28.578Z,102904.41
2022-12-18T00:31:03.099Z,102909.47
2022-12-18T00:33:30.884Z,102900.19
2022-12-18T00:36:03.066Z,102893.34
2022-12-18T00:38:30.706Z,102901.00
2022-12-18T00:40:58.294Z,102895.91
2022-12-18T00:43:24.871Z,102901.03
2022-12-18T00:45:54.407Z,102898.44
2022-12-18T00:48:23.627Z,102896.66
2022-12-18T00:50:51.879Z,102894.00
2022-12-18T00:53:19.396Z,102894.00
2022-12-18T00:55:47.308Z,102892.22
2022-12-18T00:58:16.343Z,102882.81
2022-12-18T01:00:44.933Z,102887.03
2022-12-18T01:03:15.425Z,102884.44
2022-12-18T01:05:46.219Z,102881.09
2022-12-18T01:08:13.706Z,102872.63
2022-12-18T01:10:44.036Z,102891.31
2022-12-18T01:13:11.523Z,102892.97
2022-12-18T01:15:38.910Z,102892.22
2022-12-18T01:18:06.332Z,102893.13
2022-12-18T01:20:34.065Z,102897.44
2022-12-18T01:23:02.843Z,102900.84
2022-12-18T01:25:30.285Z,102903.38
2022-12-18T01:27:57.935Z,102914.47
2022-12-18T01:30:26.173Z,102917.03
2022-12-18T01:32:54.225Z,102922.00
2022-12-18T01:35:21.750Z,102919.44
2022-12-18T01:37:49.161Z,102915.94
2022-12-18T01:40:17.987Z,102926.97
2022-12-18T01:42:45.440Z,102927.72
2022-12-18T01:45:28.212Z,102923.41
2022-12-18T01:47:58.723Z,102920.91
2022-12-18T01:50:32.506Z,102926.84
2022-12-18T01:53:04.018Z,102918.38
2022-12-18T01:55:38.527Z,102924.25
2022-12-18T01:58:06.853Z,102922.56
2022-12-18T02:00:34.342Z,102923.44
2022-12-18T02:03:01.920Z,102926.81
2022-12-18T02:05:41.960Z,102919.91
2022-12-18T02:08:16.271Z,102923.44
2022-12-18T02:10:51.339Z,102931.22
2022-12-18T02:13:32.041Z,102935.56
2022-12-18T02:16:07.408Z,102925.50
2022-12-18T02:18:40.390Z,102941.56
2022-12-18T02:21:19.110Z,102936.38
2022-12-18T02:23:54.231Z,102939.53
2022-12-18T02:26:28.853Z,102938.50
2022-12-18T02:29:02.997Z,102934.94
2022-12-18T02:31:37.336Z,102938.13
2022-12-18T02:34:08.629Z,102939.75
2022-12-18T02:36:42.800Z,102944.00
2022-12-18T02:39:13.559Z,102944.78
2022-12-18T02:41:50.184Z,102938.97
2022-12-18T02:44:18.590Z,102947.44
2022-12-18T02:46:48.433Z,102943.03
2022-12-18T02:49:32.788Z,102952.38
2022-12-18T02:52:15.343Z,102949.75
2022-12-18T02:55:02.033Z,102960.78
2022-12-18T02:57:37.167Z,102972.78
2022-12-18T03:00:09.907Z,102965.94
2022-12-18T03:02:44.905Z,102965.16
2022-12-18T03:05:16.956Z,102961.84
2022-12-18T03:07:50.874Z,102966.13
2022-12-18T03:10:26.067Z,102967.69
2022-12-18T03:13:01.131Z,102960.78
2022-12-18T03:15:33.976Z,102961.63
2022-12-18T03:18:12.591Z,102959.94
2022-12-18T03:20:43.197Z,102956.59
2022-12-18T03:23:17.581Z,102966.78
2022-12-18T03:25:49.685Z,102971.03
2022-12-18T03:28:22.995Z,102976.13
2022-12-18T03:31:00.573Z,102977.88
2022-12-18T03:33:33.743Z,102977.00
2022-12-18T03:36:01.275Z,102965.09
2022-12-18T03:38:29.250Z,102967.34
2022-12-18T03:41:05.019Z,102964.59
2022-12-18T03:43:47.371Z,102961.97
2022-12-18T03:46:19.343Z,102971.31
2022-12-18T03:48:51.365Z,102969.66
2022-12-18T03:51:27.797Z,102963.69
2022-12-18T03:53:59.998Z,102971.44
2022-12-18T03:56:35.327Z,102973.13
2022-12-18T03:59:06.676Z,102971.38
2022-12-18T04:01:37.864Z,102977.31
2022-12-18T04:04:07.570Z,102976.41
2022-12-18T04:06:40.487Z,102974.59
2022-12-18T04:09:10.694Z,102977.00
2022-12-18T04:11:42.003Z,102965.09
2022-12-18T04:14:16.072Z,102969.25
2022-12-18T04:16:46.181Z,102971.75
2022-12-18T04:19:17.692Z,102963.19
2022-12-18T04:21:48.037Z,102974.13
2022-12-18T04:24:16.276Z,102974.03
2022-12-18T04:26:54.503Z,102990.22
2022-12-18T04:29:29.591Z,102985.84
2022-12-18T04:31:57.849Z,102987.53
2022-12-18T04:34:27.712Z,103003.59
2022-12-18T04:36:56.254Z,102986.56
2022-12-18T04:39:25.090Z,102988.13
2022-12-18T04:41:55.959Z,102986.44
2022-12-18T04:44:23.778Z,102997.59
2022-12-18T04:46:52.722Z,102982.41
2022-12-18T04:49:20.170Z,102995.19
2022-12-18T04:51:51.919Z,103007.09
2022-12-18T04:54:19.356Z,103001.94
2022-12-18T04:56:46.797Z,103000.25
2022-12-18T04:59:14.914Z,103000.31
2022-12-18T05:01:42.518Z,103002.88
2022-12-18T05:04:11.888Z,103006.25
2022-12-18T05:06:39.433Z,103007.16
2022-12-18T05:09:06.981Z,103016.56
2022-12-18T05:11:34.371Z,103009.78
2022-12-18T05:14:01.837Z,103009.72
2022-12-18T05:16:29.318Z,103002.91
2022-12-18T05:18:57.149Z,103006.25
2022-12-18T05:21:27.352Z,103004.59
2022-12-18T05:23:55.120Z,103017.31
2022-12-18T05:26:22.545Z,103013.03
2022-12-18T05:28:50.363Z,103022.34
2022-12-18T05:31:20.377Z,103022.41
2022-12-18T05:33:47.844Z,103018.25
2022-12-18T05:36:16.571Z,103031.94
2022-12-18T05:38:45.383Z,103025.28
2022-12-18T05:41:12.821Z,103035.56
2022-12-18T05:43:43.174Z,103045.88
2022-12-18T05:46:14.361Z,103047.56
2022-12-18T05:48:42.001Z,103041.59
2022-12-18T05:51:11.630Z,103052.66
2022-12-18T05:53:40.490Z,103044.19
2022-12-18T05:56:13.347Z,103046.72
2022-12-18T05:58:41.088Z,103045.06
2022-12-18T06:01:11.108Z,103055.28
2022-12-18T06:03:39.059Z,103045.09
2022-12-18T06:06:15.546Z,103064.66
2022-12-18T06:08:46.459Z,103058.06
2022-12-18T06:11:18.803Z,103052.19
2022-12-18T06:13:46.225Z,103058.22
2022-12-18T06:16:13.798Z,103063.25
2022-12-18T06:18:41.351Z,103057.25
2022-12-18T06:21:08.987Z,103073.31
2022-12-18T06:23:37.073Z,103067.25
2022-12-18T06:26:09.316Z,103070.59
2022-12-18T06:28:38.124Z,103081.59
2022-12-18T06:31:05.958Z,103085.06
2022-12-18T06:33:34.120Z,103076.63
2022-12-18T06:36:02.956Z,103085.25
2022-12-18T06:38:30.493Z,103089.53
2022-12-18T06:40:59.069Z,103097.28
2022-12-18T06:43:26.686Z,103099.97
2022-12-18T06:46:01.183Z,103100.00
2022-12-18T06:48:28.849Z,103098.34
2022-12-18T06:50:56.532Z,103100.81
2022-12-18T06:53:24.045Z,103111.75
2022-12-18T06:55:51.508Z,103102.25
2022-12-18T06:58:19.091Z,103104.75
2022-12-18T07:00:46.606Z,103106.34
2022-12-18T07:03:15.575Z,103116.47
2022-12-18T07:05:44.555Z,103129.19
2022-12-18T07:08:12.019Z,103128.44
2022-12-18T07:10:46.801Z,103131.84
2022-12-18T07:13:15.719Z,103124.28
2022-12-18T07:15:43.202Z,103118.41
2022-12-18T07:18:11.476Z,103109.00
2022-12-18T07:20:40.252Z,103108.94
2022-12-18T07:23:07.716Z,103117.34
2022-12-18T07:25:35.793Z,103115.72
2022-12-18T07:28:04.485Z,103111.50
2022-12-18T07:30:32.651Z,103126.00
2022-12-18T07:33:00.630Z,103124.38
2022-12-18T07:35:28.093Z,103131.28
2022-12-18T07:37:56.859Z,103124.59
2022-12-18T07:40:24.296Z,103124.66
2022-12-18T07:42:51.746Z,103123.78
2022-12-18T07:45:19.195Z,103117.72
2022-12-18T07:47:47.015Z,103120.06
2022-12-18T07:50:14.628Z,103126.69
2022-12-18T07:52:42.083Z,103118.16
2022-12-18T07:55:11.218Z,103121.66
2022-12-18T07:57:50.461Z,103119.22
2022-12-18T08:00:18.850Z,103126.19
2022-12-18T08:02:46.447Z,103111.88
2022-12-18T08:05:15.647Z,103122.13
2022-12-18T08:07:43.184Z,103128.13
2022-12-18T08:10:12.322Z,103135.75
2022-12-18T08:12:40.291Z,103132.38
2022-12-18T08:15:08.966Z,103133.81
2022-12-18T08:17:36.650Z,103138.78
2022-12-18T08:20:05.525Z,103138.69
2022-12-18T08:22:35.361Z,103124.97
2022-12-18T08:25:02.856Z,103132.63
2022-12-18T08:27:33.191Z,103135.16
2022-12-18T08:30:01.775Z,103132.63
2022-12-18T08:32:30.247Z,103132.69
2022-12-18T08:34:57.735Z,103140.38
2022-12-18T08:37:25.328Z,103132.00
2022-12-18T08:39:53.090Z,103126.25
2022-12-18T08:42:38.097Z,103134.97
2022-12-18T08:45:08.010Z,103134.31
2022-12-18T08:47:35.450Z,103145.47
2022-12-18T08:50:03.166Z,103147.97
2022-12-18T08:52:34.284Z,103145.28
2022-12-18T08:55:02.724Z,103158.09
2022-12-18T08:57:35.514Z,103156.50
2022-12-18T09:00:14.523Z,103147.16
2022-12-18T09:03:24.100Z,103153.22
2022-12-18T09:09:46.506Z,103178.03
2022-12-18T09:12:31.768Z,103177.31
2022-12-18T09:15:59.879Z,103168.97
2022-12-18T09:18:44.949Z,103175.84
2022-12-18T09:21:31.566Z,103180.22
2022-12-18T09:24:23.792Z,103170.09
2022-12-18T09:27:07.395Z,103172.78
2022-12-18T09:29:58.819Z,103191.63
2022-12-18T09:32:29.034Z,103195.88
2022-12-18T09:35:09.623Z,103184.13
2022-12-18T09:37:37.390Z,103181.63
2022-12-18T09:40:05.864Z,103187.69
2022-12-18T09:42:33.838Z,103188.59
2022-12-18T09:45:02.408Z,103175.09
2022-12-18T09:47:36.815Z,103170.09
2022-12-18T09:50:17.551Z,103173.56
2022-12-18T09:52:49.281Z,103163.44
2022-12-18T09:55:26.632Z,103147.47
2022-12-18T09:57:58.429Z,103153.59
2022-12-18T10:00:27.950Z,103145.22
2022-12-18T10:03:02.725Z,103149.69
2022-12-18T10:05:45.464Z,103138.88
2022-12-18T10:08:20.176Z,103129.78
2022-12-18T10:11:01.462Z,103131.69
2022-12-18T10:13:35.275Z,103114.84
2022-12-18T10:16:18.716Z,103114.03
2022-12-18T10:19:03.612Z,103108.16
2022-12-18T10:21:40.805Z,103116.78
2022-12-18T10:24:40.717Z,103120.28
2022-12-18T10:27:20.780Z,103124.53
2022-12-18T10:29:49.136Z,103115.94
2022-12-18T10:32:32.815Z,103114.19
2022-12-18T10:35:16.966Z,103123.63
2022-12-18T10:38:30.501Z,103117.69
2022-12-18T10:41:44.512Z,103109.13
2022-12-18T10:44:25.879Z,103104.94
2022-12-18T10:47:11.785Z,103107.53
2022-12-18T10:49:49.347Z,103101.69
2022-12-18T10:52:25.202Z,103090.53
2022-12-18T10:55:23.753Z,103097.28
2022-12-18T10:58:30.004Z,103086.13
2022-12-18T11:01:13.673Z,103083.47
2022-12-18T11:03:51.662Z,103089.53
2022-12-18T11:06:22.765Z,103081.09
2022-12-18T11:09:00.503Z,103078.53
2022-12-18T11:11:30.790Z,103073.53
2022-12-18T11:14:03.592Z,103079.66
2022-12-18T11:16:35.186Z,103072.97
2022-12-18T11:19:23.611Z,103069.56
2022-12-18T11:21:51.630Z,103065.31
2022-12-18T11:24:27.184Z,103061.09
2022-12-18T11:26:59.795Z,103062.88
2022-12-18T11:29:34.785Z,103074.03
2022-12-18T11:32:31.841Z,103075.78
2022-12-18T11:35:04.268Z,103075.03
2022-12-18T11:37:37.226Z,103075.03
2022-12-18T11:40:13.980Z,103080.13
2022-12-18T11:42:48.642Z,103084.44
2022-12-18T11:45:28.129Z,103081.84
2022-12-18T11:48:00.701Z,103080.16
2022-12-18T11:50:33.580Z,103081.09
2022-12-18T11:53:05.885Z,103075.13
2022-12-18T11:55:42.316Z,103083.69
2022-12-18T11:58:31.660Z,103083.63
2022-12-18T12:16:57.714Z,103095.53
2022-12-18T12:19:59.164Z,103106.53
2022-12-18T12:22:48.329Z,103099.69
2022-12-18T12:25:35.239Z,103103.16
2022-12-18T12:28:18.058Z,103104.13
2022-12-18T12:31:01.665Z,103095.75
2022-12-18T12:33:43.904Z,103100.16
2022-12-18T12:36:21.643Z,103109.50
2022-12-18T12:38:55.075Z,103116.41
2022-12-18T12:41:43.380Z,103107.91
2022-12-18T12:44:22.046Z,103121.56
2022-12-18T12:46:52.137Z,103125.81
2022-12-18T12:49:26.704Z,103130.13
2022-12-18T12:52:03.652Z,103119.81
2022-12-18T12:54:34.581Z,103123.28
2022-12-18T12:57:10.156Z,103129.22
2022-12-18T12:59:50.237Z,103113.06
2022-12-18T13:02:30.939Z,103103.84
2022-12-18T13:05:11.955Z,103091.22
2022-12-18T13:07:44.553Z,103073.44
2022-12-18T13:10:34.948Z,103062.38
2022-12-18T13:13:05.429Z,103070.91
2022-12-18T13:15:40.221Z,103071.00
2022-12-18T13:18:18.251Z,103070.19
2022-12-18T13:20:55.294Z,103081.34
2022-12-18T13:23:35.929Z,103087.38
2022-12-18T13:26:31.965Z,103085.66
2022-12-18T13:29:02.917Z,103090.00
2022-12-18T13:32:12.914Z,103085.75
2022-12-18T13:34:43.558Z,103095.13
2022-12-18T13:37:45.816Z,103082.31
2022-12-18T13:40:59.400Z,103084.91
2022-12-18T13:43:34.876Z,103079.84
2022-12-18T13:46:24.530Z,103099.25
2022-12-18T13:48:56.624Z,103082.22
2022-12-18T13:51:26.078Z,103071.94
2022-12-18T13:54:06.500Z,103072.00
2022-12-18T13:56:35.393Z,103049.94
2022-12-18T13:59:13.940Z,103046.66
2022-12-18T14:01:50.307Z,103060.28
2022-12-18T14:04:24.103Z,103048.41
2022-12-18T14:13:00.317Z,103044.78
2022-12-18T14:15:38.147Z,103036.28
2022-12-18T14:18:38.992Z,103054.97
2022-12-18T14:21:23.523Z,103048.88
2022-12-18T14:24:04.472Z,103042.88
2022-12-18T14:26:37.113Z,103049.72
2022-12-18T14:29:23.713Z,103040.38
2022-12-18T14:32:13.287Z,103036.91
2022-12-18T14:34:42.631Z,103024.97
2022-12-18T14:37:13.099Z,103013.00
2022-12-18T14:39:41.026Z,103013.84
2022-12-18T14:42:13.258Z,103014.72
2022-12-18T14:45:05.075Z,103002.91
2022-12-18T14:47:30.773Z,102995.25
2022-12-18T14:50:17.172Z,102993.44
2022-12-18T14:52:44.840Z,102990.03
2022-12-18T14:55:17.881Z,102985.78
2022-12-18T14:57:50.642Z,102991.75
2022-12-18T15:00:20.962Z,102984.88
2022-12-18T15:02:52.308Z,102972.91
2022-12-18T15:05:22.227Z,102979.56
2022-12-18T15:07:52.852Z,102981.19
2022-12-18T15:10:22.665Z,103002.41
2022-12-18T15:13:07.891Z,103004.97
2022-12-18T15:15:50.299Z,103013.50
2022-12-18T15:18:21.138Z,103023.72
2022-12-18T15:20:50.888Z,103028.03
2022-12-18T15:23:20.580Z,103029.66
2022-12-18T15:25:49.981Z,103039.03
2022-12-18T15:28:23.907Z,103026.25
2022-12-18T15:31:03.413Z,103032.97
2022-12-18T15:33:33.998Z,103044.88
2022-12-18T15:36:03.256Z,103018.47
2022-12-18T15:38:30.797Z,103017.56
2022-12-18T15:40:58.926Z,103025.22
2022-12-18T15:43:36.919Z,103025.31
2022-12-18T15:46:07.208Z,103025.38
2022-12-18T15:48:36.469Z,103039.03
2022-12-18T15:51:04.339Z,103032.13
2022-12-18T15:53:34.506Z,103030.38
2022-12-18T15:59:14.863Z,103036.47
2022-12-18T16:01:45.493Z,103028.03
2022-12-18T16:04:17.533Z,103022.06
2022-12-18T16:07:13.409Z,103016.06
2022-12-18T16:09:32.557Z,103012.72
2022-12-18T16:12:00.271Z,102999.19
2022-12-18T16:14:33.283Z,103000.06
2022-12-18T16:17:02.825Z,103002.69
2022-12-18T16:19:33.632Z,103004.41
2022-12-18T16:22:04.108Z,103003.56
2022-12-18T16:24:37.009Z,102994.09
2022-12-18T16:27:04.692Z,102988.00
2022-12-18T16:29:34.161Z,102989.66
2022-12-18T16:32:05.468Z,102983.75
2022-12-18T16:34:36.318Z,102982.91
2022-12-18T16:37:07.625Z,102989.81
2022-12-18T16:39:36.451Z,102973.72
2022-12-18T16:42:12.441Z,102987.34
2022-12-18T16:44:48.269Z,102984.78
2022-12-18T16:47:18.125Z,102978.84
2022-12-18T16:49:51.643Z,102971.19
2022-12-18T16:52:20.703Z,102961.84
2022-12-18T16:54:48.568Z,102954.19
2022-12-18T17:00:21.241Z,102973.59
2022-12-18T17:02:50.114Z,102969.34
2022-12-18T17:05:21.699Z,102974.50
2022-12-18T17:07:58.132Z,102981.28
2022-12-18T17:10:25.606Z,102983.00
2022-12-18T17:12:53.082Z,102977.91
2022-12-18T17:15:23.968Z,102971.91
2022-12-18T17:17:53.850Z,102958.25
2022-12-18T17:20:24.134Z,102959.03
2022-12-18T17:22:53.522Z,102975.19
2022-12-18T17:25:21.863Z,102970.81
2022-12-18T17:27:54.075Z,102976.69
2022-12-18T17:30:23.638Z,102975.06
2022-12-18T17:32:51.087Z,102973.31
2022-12-18T17:35:18.729Z,102962.16
2022-12-18T17:37:46.183Z,102949.31
2022-12-18T17:40:18.348Z,102957.75
2022-12-18T17:42:45.789Z,102969.56
2022-12-18T17:45:13.198Z,102980.56
2022-12-18T17:47:42.287Z,102975.38
2022-12-18T17:50:13.431Z,102981.28
2022-12-18T17:52:40.911Z,102986.31
2022-12-18T17:55:09.011Z,102976.91
2022-12-18T17:57:36.555Z,102972.63
2022-12-18T18:00:10.785Z,102973.47
2022-12-18T18:02:38.404Z,102952.97
2022-12-18T18:05:08.946Z,102948.66
2022-12-18T18:07:38.957Z,102954.56
2022-12-18T18:10:07.542Z,102950.25
2022-12-18T18:12:51.924Z,102946.88
2022-12-18T18:15:19.957Z,102935.78
2022-12-18T18:17:47.389Z,102943.38
2022-12-18T18:20:22.524Z,102940.72
2022-12-18T18:22:50.501Z,102922.81
2022-12-18T18:25:18.379Z,102914.31
2022-12-18T18:27:52.534Z,102904.97
2022-12-18T18:30:25.207Z,102910.03
2022-12-18T18:32:52.834Z,102910.81
2022-12-18T18:35:54.104Z,102916.72
2022-12-18T18:38:30.029Z,102909.91
2022-12-18T18:41:24.547Z,102900.59
2022-12-18T18:44:05.680Z,102905.72
2022-12-18T18:46:48.232Z,102898.03
2022-12-18T18:49:22.095Z,102896.34
2022-12-18T18:51:59.100Z,102886.88
2022-12-18T18:54:37.401Z,102883.47
2022-12-18T18:57:26.314Z,102883.38
2022-12-18T19:00:00.615Z,102874.78
2022-12-18T19:02:34.294Z,102856.84
2022-12-18T19:05:01.970Z,102863.56
2022-12-18T19:07:34.740Z,102852.56
2022-12-18T19:10:12.578Z,102854.25
2022-12-18T19:13:06.929Z,102859.31
2022-12-18T19:15:35.566Z,102850.81
2022-12-18T19:18:03.830Z,102856.72
2022-12-18T19:20:31.721Z,102848.22
2022-12-18T19:23:00.504Z,102842.22
2022-12-18T19:25:40.633Z,102831.97
2022-12-18T19:28:21.318Z,102846.41
2022-12-18T19:30:58.726Z,102848.16
2022-12-18T19:33:42.437Z,102832.81
2022-12-18T19:36:15.054Z,102838.78
2022-12-18T19:38:45.404Z,102836.94
2022-12-18T19:41:16.219Z,102842.03
2022-12-18T19:43:50.932Z,102838.72
2022-12-18T19:46:20.797Z,102836.97
2022-12-18T19:48:52.619Z,102832.88
2022-12-18T19:51:24.382Z,102841.38
2022-12-18T19:53:58.510Z,102837.19
2022-12-18T19:56:32.639Z,102833.81
2022-12-18T19:59:07.408Z,102829.63
2022-12-18T20:01:35.556Z,102827.94
2022-12-18T20:04:03.550Z,102824.56
2022-12-18T20:06:36.255Z,102825.38
2022-12-18T20:09:09.259Z,102828.78
2022-12-18T20:11:42.940Z,102829.63
2022-12-18T20:14:16.132Z,102826.31
2022-12-18T20:16:49.959Z,102822.88
2022-12-18T20:19:19.523Z,102819.47
2022-12-18T20:21:47.189Z,102819.47
2022-12-18T20:24:16.002Z,102811.88
2022-12-18T20:26:43.507Z,102811.03
2022-12-18T20:29:14.295Z,102792.34
2022-12-18T20:31:42.032Z,102793.09
2022-12-18T20:34:09.741Z,102804.09
2022-12-18T20:36:49.343Z,102786.25
2022-12-18T20:39:20.177Z,102785.41
2022-12-18T20:41:47.971Z,102788.81
2022-12-18T20:44:22.597Z,102779.47
2022-12-18T20:47:04.130Z,102793.94
2022-12-18T20:49:38.920Z,102804.16
2022-12-18T20:52:16.171Z,102802.50
2022-12-18T20:54:47.585Z,102804.25
2022-12-18T20:57:18.255Z,102794.94
2022-12-18T20:59:51.884Z,102786.44
2022-12-18T21:02:23.226Z,102779.66
2022-12-18T21:04:59.028Z,102770.25
2022-12-18T21:07:27.473Z,102764.31
2022-12-18T21:09:56.981Z,102773.63
2022-12-18T21:12:42.721Z,102773.66
2022-12-18T21:15:17.932Z,102775.34
2022-12-18T21:17:49.402Z,102771.06
2022-12-18T21:20:19.002Z,102776.22
2022-12-18T21:22:49.447Z,102788.13
2022-12-18T21:25:19.391Z,102761.78
2022-12-18T21:27:47.793Z,102763.56
2022-12-18T21:30:17.409Z,102759.34
2022-12-18T21:32:45.763Z,102744.16
2022-12-18T21:35:16.237Z,102754.34
2022-12-18T21:37:46.340Z,102749.31
2022-12-18T21:40:14.868Z,102745.88
2022-12-18T21:43:03.820Z,102737.41
2022-12-18T21:45:31.313Z,102746.75
2022-12-18T21:47:58.989Z,102740.84
2022-12-18T21:50:26.468Z,102734.13
2022-12-18T21:52:54.064Z,102732.50
2022-12-18T21:55:21.648Z,102751.19
2022-12-18T21:57:50.873Z,102763.13
2022-12-18T22:00:19.767Z,102757.22
2022-12-18T22:03:03.397Z,102752.13
2022-12-18T22:05:36.864Z,102754.69
2022-12-18T22:08:04.618Z,102746.22
2022-12-18T22:10:32.367Z,102747.88
2022-12-18T22:13:01.278Z,102750.47
2022-12-18T22:15:28.757Z,102758.97
2022-12-18T22:18:00.249Z,102762.38
2022-12-18T22:20:28.183Z,102747.06
2022-12-18T22:22:57.348Z,102737.72
2022-12-18T22:25:25.109Z,102734.34
2022-12-18T22:28:06.568Z,102717.31
2022-12-18T22:30:35.352Z,102710.53
2022-12-18T22:33:03.638Z,102716.47
2022-12-18T22:35:31.256Z,102713.13
2022-12-18T22:37:59.293Z,102703.78
2022-12-18T22:40:27.071Z,102708.03
2022-12-18T22:42:55.905Z,102712.28
2022-12-18T22:45:23.988Z,102688.44
2022-12-18T22:47:53.239Z,102683.38
2022-12-18T22:50:21.708Z,102682.56
2022-12-18T22:52:49.167Z,102680.88
2022-12-18T22:55:16.887Z,102665.59
2022-12-18T22:57:49.072Z,102672.41
2022-12-18T23:00:24.150Z,102664.72
2022-12-18T23:03:00.406Z,102660.47
2022-12-18T23:05:30.087Z,102646.94
2022-12-18T23:07:57.756Z,102654.56
2022-12-18T23:10:25.414Z,102640.19
2022-12-18T23:12:53.137Z,102638.47
2022-12-18T23:15:27.571Z,102629.94
2022-12-18T23:17:59.449Z,102625.66
2022-12-18T23:20:28.281Z,102622.22
2022-12-18T23:22:56.104Z,102629.00
2022-12-18T23:25:23.999Z,102624.78
2022-12-18T23:27:51.971Z,102633.28
2022-12-18T23:30:19.606Z,102618.00
2022-12-18T23:32:47.214Z,102613.75
2022-12-18T23:35:16.196Z,102601.00
2022-12-18T23:38:00.135Z,102607.81
2022-12-18T23:40:29.323Z,102597.59
2022-12-18T23:42:56.997Z,102607.81
2022-12-18T23:45:24.654Z,102592.50
2022-12-18T23:47:52.135Z,102583.19
2022-12-18T23:50:25.458Z,102578.06
2022-12-18T23:53:02.094Z,102567.91
2022-12-18T23:55:38.500Z,102550.91
2022-12-18T23:58:06.034Z,102551.78
